Camino, CA (95709)

10:10 AM PDT on March 27, 2017 (GMT -0700)
8 Mile Road | | Change Station
Active Advisory: Hydrologic Statement

Elev 3370 ft 38.74 °N, 120.65 °W | Updated 12 seconds ago

Mostly Cloudy
Mostly Cloudy
41.2 °F
Feels Like 41 °F
N
0.0
Wind Variable Wind from West
Gusts 0.0 mph

Today
High -- | Low -- °F
--% Chance of Precip.
Yesterday
High -- | Low -- °F
Precip. -- in
Pressure 30.17 in
Visibility 10.0 miles
Clouds Few 400 ft
Scattered Clouds 1000 ft
Mostly Cloudy 3000 ft
Windchill 41 °F
Dew Point 41 °F
Humidity 99%
Rainfall 0.39 in
Snow Depth Not available.
6:54 AM 7:21 PM
Waning Crescent, 0% visible
METAR KPVF 271655Z AUTO 10003KT 10SM FEW004 SCT010 BKN030 07/07 A3017 RMK AO1
Pressure 30.17 in
Visibility 10.0 miles
Clouds Few 400 ft
Scattered Clouds 1000 ft
Mostly Cloudy 3000 ft
Windchill 41 °F
Dew Point 41 °F
Humidity 99%
Rainfall 0.39 in
Snow Depth Not available.
6:54 AM 7:21 PM
Waning Crescent, 0% visible
METAR KPVF 271655Z AUTO 10003KT 10SM FEW004 SCT010 BKN030 07/07 A3017 RMK AO1

Get Your Daily Forecast Email!

Thanks for signing up!

Be on the lookout for a verification email in your inbox.

You'll start receiving severe weather alerts in your inbox..

×

10-Day Weather Forecast

Almanac

Astronomy

Mar. 27, 2017 Rise Set
Actual Time
Civil Twilight
Nautical Twilight
Astronomical Twilight
Moon
Length of Visible Light
Length of Day
Tomorrow will be .
, % of the Moon is Illuminated

Today's Extremes

State Highs State Lows

Community

WunderPhotos

Upload Photos

1,962,540 photos uploaded!

WunderBlog® & News

Nearby

Air Quality

  Air Quality AQ Index Pollutant
Not available.

Snow Depth

Station Depth Elevation

Earthquake Activity

City Distance Mag. Time & Date
Minimum magnitude displayed is 2.5.

Earthquake Activity

City Distance Mag. Time & Date
Minimum magnitude displayed is 2.5.

Coastal Water Temperatures

Place Temperature

Stations

Nearby Weather Stations

Station Location Temp. Windchill Dew Point Humidity Wind Precip. Elev Updated Type
                   

Watches & Warnings

Hydrologic Statement
Issued: 7:49 AM PDT Mar. 27, 2017 – National Weather Service

Forecast information for
feather river near Nicolaus.
* At 7:15 am Monday the stage was 39.1 feet.
* Forecast to fall below monitor stage of 39.0 ft late this morning
then forecast to recede to near 38.5 ft tomorrow morning.
* Flood stage 47.0 ft
* monitor stage 39.0 ft


&&

Lat... Lon 3897 12165 3903 12149 3884 12150 3876 12168